sensor_id;sensor_type;location;lat;lon;timestamp;P1;durP1;ratioP1;P2;durP2;ratioP2
35693;SDS011;21812;55.536;37.664;2022-12-24T00:02:14;15.75;;;10.00;;
35693;SDS011;21812;55.536;37.664;2022-12-24T00:04:39;14.25;;;8.60;;
35693;SDS011;21812;55.536;37.664;2022-12-24T00:07:05;13.38;;;9.57;;
35693;SDS011;21812;55.536;37.664;2022-12-24T00:09:31;15.18;;;9.38;;
35693;SDS011;21812;55.536;37.664;2022-12-24T00:11:56;15.90;;;9.23;;
35693;SDS011;21812;55.536;37.664;2022-12-24T00:14:22;14.30;;;9.48;;
35693;SDS011;21812;55.536;37.664;2022-12-24T00:16:49;13.88;;;9.57;;
35693;SDS011;21812;55.536;37.664;2022-12-24T00:19:14;14.30;;;9.35;;
35693;SDS011;21812;55.536;37.664;2022-12-24T00:21:40;14.55;;;8.75;;
35693;SDS011;21812;55.536;37.664;2022-12-24T00:24:05;13.30;;;9.48;;
35693;SDS011;21812;55.536;37.664;2022-12-24T00:26:31;14.75;;;9.45;;
35693;SDS011;21812;55.536;37.664;2022-12-24T00:28:58;15.20;;;9.25;;
35693;SDS011;21812;55.536;37.664;2022-12-24T00:31:23;14.18;;;9.30;;
35693;SDS011;21812;55.536;37.664;2022-12-24T00:33:49;13.43;;;8.40;;
35693;SDS011;21812;55.536;37.664;2022-12-24T00:36:15;15.55;;;9.02;;
35693;SDS011;21812;55.536;37.664;2022-12-24T00:38:42;16.35;;;10.02;;
35693;SDS011;21812;55.536;37.664;2022-12-24T00:41:08;12.77;;;8.63;;
35693;SDS011;21812;55.536;37.664;2022-12-24T00:43:54;12.82;;;8.07;;
35693;SDS011;21812;55.536;37.664;2022-12-24T00:46:25;13.68;;;8.68;;
35693;SDS011;21812;55.536;37.664;2022-12-24T00:48:51;15.68;;;9.45;;
35693;SDS011;21812;55.536;37.664;2022-12-24T00:51:18;11.63;;;8.10;;
35693;SDS011;21812;55.536;37.664;2022-12-24T00:53:44;12.20;;;8.40;;
35693;SDS011;21812;55.536;37.664;2022-12-24T00:56:10;12.02;;;8.40;;
35693;SDS011;21812;55.536;37.664;2022-12-24T00:58:36;11.70;;;8.52;;
35693;SDS011;21812;55.536;37.664;2022-12-24T01:01:02;11.63;;;7.72;;
35693;SDS011;21812;55.536;37.664;2022-12-24T01:03:28;14.02;;;8.93;;
35693;SDS011;21812;55.536;37.664;2022-12-24T01:06:01;13.75;;;8.02;;
35693;SDS011;21812;55.536;37.664;2022-12-24T01:08:27;13.15;;;8.20;;
35693;SDS011;21812;55.536;37.664;2022-12-24T01:10:52;11.48;;;7.60;;
35693;SDS011;21812;55.536;37.664;2022-12-24T01:13:18;12.85;;;7.70;;
35693;SDS011;21812;55.536;37.664;2022-12-24T01:15:44;11.70;;;8.13;;
35693;SDS011;21812;55.536;37.664;2022-12-24T01:18:10;10.38;;;7.32;;
35693;SDS011;21812;55.536;37.664;2022-12-24T01:20:35;10.18;;;7.00;;
35693;SDS011;21812;55.536;37.664;2022-12-24T01:23:01;10.52;;;6.68;;
35693;SDS011;21812;55.536;37.664;2022-12-24T01:25:27;10.43;;;7.22;;
35693;SDS011;21812;55.536;37.664;2022-12-24T01:27:52;10.35;;;7.15;;
35693;SDS011;21812;55.536;37.664;2022-12-24T01:30:18;9.02;;;6.50;;
35693;SDS011;21812;55.536;37.664;2022-12-24T01:32:44;13.20;;;7.65;;
35693;SDS011;21812;55.536;37.664;2022-12-24T01:35:10;10.10;;;6.68;;
35693;SDS011;21812;55.536;37.664;2022-12-24T01:37:36;9.70;;;7.13;;
35693;SDS011;21812;55.536;37.664;2022-12-24T01:40:02;11.20;;;6.95;;
35693;SDS011;21812;55.536;37.664;2022-12-24T01:42:48;11.32;;;7.03;;
35693;SDS011;21812;55.536;37.664;2022-12-24T01:48:04;11.07;;;7.28;;
35693;SDS011;21812;55.536;37.664;2022-12-24T01:50:36;10.45;;;6.75;;
35693;SDS011;21812;55.536;37.664;2022-12-24T01:53:02;10.55;;;7.45;;
35693;SDS011;21812;55.536;37.664;2022-12-24T01:55:30;9.60;;;6.88;;
35693;SDS011;21812;55.536;37.664;2022-12-24T01:57:57;10.68;;;6.85;;
35693;SDS011;21812;55.536;37.664;2022-12-24T02:00:24;11.70;;;7.97;;
35693;SDS011;21812;55.536;37.664;2022-12-24T02:02:50;10.40;;;7.25;;
35693;SDS011;21812;55.536;37.664;2022-12-24T02:07:49;10.77;;;7.55;;
35693;SDS011;21812;55.536;37.664;2022-12-24T02:10:15;11.23;;;7.68;;
35693;SDS011;21812;55.536;37.664;2022-12-24T02:12:41;11.95;;;8.10;;
35693;SDS011;21812;55.536;37.664;2022-12-24T02:15:09;10.57;;;6.70;;
35693;SDS011;21812;55.536;37.664;2022-12-24T02:17:43;10.65;;;7.47;;
35693;SDS011;21812;55.536;37.664;2022-12-24T02:20:26;9.88;;;7.10;;
35693;SDS011;21812;55.536;37.664;2022-12-24T02:23:01;13.02;;;8.98;;
35693;SDS011;21812;55.536;37.664;2022-12-24T02:31:32;14.07;;;8.25;;
35693;SDS011;21812;55.536;37.664;2022-12-24T02:34:12;12.88;;;7.97;;
35693;SDS011;21812;55.536;37.664;2022-12-24T02:36:51;12.77;;;8.35;;
35693;SDS011;21812;55.536;37.664;2022-12-24T02:39:29;13.15;;;8.23;;
35693;SDS011;21812;55.536;37.664;2022-12-24T02:42:03;13.18;;;8.30;;
35693;SDS011;21812;55.536;37.664;2022-12-24T02:44:39;11.05;;;7.82;;
35693;SDS011;21812;55.536;37.664;2022-12-24T02:47:11;11.70;;;7.68;;
35693;SDS011;21812;55.536;37.664;2022-12-24T02:49:41;15.35;;;8.07;;
35693;SDS011;21812;55.536;37.664;2022-12-24T02:52:26;13.70;;;8.02;;
35693;SDS011;21812;55.536;37.664;2022-12-24T02:55:13;13.98;;;7.90;;
35693;SDS011;21812;55.536;37.664;2022-12-24T02:58:17;11.65;;;8.13;;
35693;SDS011;21812;55.536;37.664;2022-12-24T03:01:15;12.05;;;7.72;;
35693;SDS011;21812;55.536;37.664;2022-12-24T03:03:54;13.65;;;8.82;;
35693;SDS011;21812;55.536;37.664;2022-12-24T03:06:42;11.43;;;7.60;;
35693;SDS011;21812;55.536;37.664;2022-12-24T03:12:00;12.95;;;8.85;;
35693;SDS011;21812;55.536;37.664;2022-12-24T03:14:36;10.70;;;8.45;;
35693;SDS011;21812;55.536;37.664;2022-12-24T03:17:04;12.88;;;9.25;;
35693;SDS011;21812;55.536;37.664;2022-12-24T03:19:32;15.05;;;8.40;;
35693;SDS011;21812;55.536;37.664;2022-12-24T03:21:58;11.23;;;7.70;;
35693;SDS011;21812;55.536;37.664;2022-12-24T03:24:28;15.48;;;8.68;;
35693;SDS011;21812;55.536;37.664;2022-12-24T03:26:54;16.35;;;10.20;;
35693;SDS011;21812;55.536;37.664;2022-12-24T03:29:20;14.07;;;10.13;;
35693;SDS011;21812;55.536;37.664;2022-12-24T03:31:48;15.52;;;10.18;;
35693;SDS011;21812;55.536;37.664;2022-12-24T03:34:15;17.02;;;10.45;;
35693;SDS011;21812;55.536;37.664;2022-12-24T03:36:42;16.52;;;9.77;;
35693;SDS011;21812;55.536;37.664;2022-12-24T03:39:08;17.50;;;10.38;;
35693;SDS011;21812;55.536;37.664;2022-12-24T03:41:34;17.13;;;10.93;;
35693;SDS011;21812;55.536;37.664;2022-12-24T03:44:00;17.17;;;12.02;;
35693;SDS011;21812;55.536;37.664;2022-12-24T03:46:25;15.10;;;10.85;;
35693;SDS011;21812;55.536;37.664;2022-12-24T03:48:51;14.52;;;9.63;;
35693;SDS011;21812;55.536;37.664;2022-12-24T03:51:18;16.58;;;9.52;;
35693;SDS011;21812;55.536;37.664;2022-12-24T03:53:48;19.50;;;11.57;;
35693;SDS011;21812;55.536;37.664;2022-12-24T03:56:16;16.70;;;10.25;;
35693;SDS011;21812;55.536;37.664;2022-12-24T03:58:42;15.63;;;10.77;;
35693;SDS011;21812;55.536;37.664;2022-12-24T04:01:08;19.20;;;12.43;;
35693;SDS011;21812;55.536;37.664;2022-12-24T04:03:33;18.65;;;12.55;;
35693;SDS011;21812;55.536;37.664;2022-12-24T04:06:02;19.60;;;11.07;;
35693;SDS011;21812;55.536;37.664;2022-12-24T04:08:30;18.23;;;10.63;;
35693;SDS011;21812;55.536;37.664;2022-12-24T04:10:56;21.75;;;11.48;;
35693;SDS011;21812;55.536;37.664;2022-12-24T04:13:22;20.92;;;12.35;;
35693;SDS011;21812;55.536;37.664;2022-12-24T04:16:00;18.05;;;11.40;;
35693;SDS011;21812;55.536;37.664;2022-12-24T04:18:29;20.95;;;12.20;;
35693;SDS011;21812;55.536;37.664;2022-12-24T04:20:55;17.52;;;11.18;;
35693;SDS011;21812;55.536;37.664;2022-12-24T04:23:21;19.08;;;11.38;;
35693;SDS011;21812;55.536;37.664;2022-12-24T04:25:47;19.25;;;11.93;;
35693;SDS011;21812;55.536;37.664;2022-12-24T04:28:13;19.00;;;12.25;;
35693;SDS011;21812;55.536;37.664;2022-12-24T04:30:40;19.67;;;12.27;;
35693;SDS011;21812;55.536;37.664;2022-12-24T04:33:06;19.38;;;11.45;;
35693;SDS011;21812;55.536;37.664;2022-12-24T04:35:32;18.92;;;11.60;;
35693;SDS011;21812;55.536;37.664;2022-12-24T04:37:58;18.48;;;11.13;;
35693;SDS011;21812;55.536;37.664;2022-12-24T04:40:24;17.10;;;11.30;;
35693;SDS011;21812;55.536;37.664;2022-12-24T04:42:50;19.17;;;12.27;;
35693;SDS011;21812;55.536;37.664;2022-12-24T04:45:16;17.67;;;12.02;;
35693;SDS011;21812;55.536;37.664;2022-12-24T04:47:42;21.75;;;12.00;;
35693;SDS011;21812;55.536;37.664;2022-12-24T04:50:08;19.70;;;11.77;;
35693;SDS011;21812;55.536;37.664;2022-12-24T04:52:34;17.98;;;10.85;;
35693;SDS011;21812;55.536;37.664;2022-12-24T04:54:59;19.60;;;11.70;;
35693;SDS011;21812;55.536;37.664;2022-12-24T04:57:25;21.63;;;11.50;;
35693;SDS011;21812;55.536;37.664;2022-12-24T04:59:51;20.73;;;10.98;;
35693;SDS011;21812;55.536;37.664;2022-12-24T05:02:16;22.02;;;11.52;;
35693;SDS011;21812;55.536;37.664;2022-12-24T05:04:42;21.08;;;11.77;;
35693;SDS011;21812;55.536;37.664;2022-12-24T05:07:07;17.67;;;10.55;;
35693;SDS011;21812;55.536;37.664;2022-12-24T05:09:33;16.70;;;11.35;;
35693;SDS011;21812;55.536;37.664;2022-12-24T05:11:59;16.05;;;11.65;;
35693;SDS011;21812;55.536;37.664;2022-12-24T05:14:24;17.90;;;10.75;;
35693;SDS011;21812;55.536;37.664;2022-12-24T05:16:50;16.85;;;10.55;;
35693;SDS011;21812;55.536;37.664;2022-12-24T05:19:15;19.08;;;10.77;;
35693;SDS011;21812;55.536;37.664;2022-12-24T05:21:41;18.88;;;11.32;;
35693;SDS011;21812;55.536;37.664;2022-12-24T05:24:08;19.52;;;10.93;;
35693;SDS011;21812;55.536;37.664;2022-12-24T05:26:55;19.27;;;11.00;;
35693;SDS011;21812;55.536;37.664;2022-12-24T05:29:22;19.10;;;11.32;;
35693;SDS011;21812;55.536;37.664;2022-12-24T05:31:49;20.33;;;11.60;;
35693;SDS011;21812;55.536;37.664;2022-12-24T05:34:15;16.45;;;10.60;;
35693;SDS011;21812;55.536;37.664;2022-12-24T05:36:41;17.05;;;10.80;;
35693;SDS011;21812;55.536;37.664;2022-12-24T05:39:09;23.63;;;12.57;;
35693;SDS011;21812;55.536;37.664;2022-12-24T05:41:38;18.80;;;11.68;;
35693;SDS011;21812;55.536;37.664;2022-12-24T05:44:04;21.67;;;11.48;;
35693;SDS011;21812;55.536;37.664;2022-12-24T05:46:30;19.65;;;10.88;;
35693;SDS011;21812;55.536;37.664;2022-12-24T05:48:55;18.35;;;11.50;;
35693;SDS011;21812;55.536;37.664;2022-12-24T05:51:21;21.95;;;12.07;;
35693;SDS011;21812;55.536;37.664;2022-12-24T05:53:48;21.48;;;11.88;;
35693;SDS011;21812;55.536;37.664;2022-12-24T05:56:16;20.35;;;11.23;;
35693;SDS011;21812;55.536;37.664;2022-12-24T05:58:44;24.17;;;14.10;;
35693;SDS011;21812;55.536;37.664;2022-12-24T06:01:10;23.77;;;12.18;;
35693;SDS011;21812;55.536;37.664;2022-12-24T06:03:36;23.35;;;12.60;;
35693;SDS011;21812;55.536;37.664;2022-12-24T06:06:06;19.83;;;12.65;;
35693;SDS011;21812;55.536;37.664;2022-12-24T06:08:34;17.52;;;11.10;;
35693;SDS011;21812;55.536;37.664;2022-12-24T06:11:01;19.70;;;11.77;;
35693;SDS011;21812;55.536;37.664;2022-12-24T06:13:29;29.67;;;12.95;;
35693;SDS011;21812;55.536;37.664;2022-12-24T06:15:56;18.45;;;10.45;;
35693;SDS011;21812;55.536;37.664;2022-12-24T06:18:23;22.73;;;11.27;;
35693;SDS011;21812;55.536;37.664;2022-12-24T06:20:52;20.08;;;11.65;;
35693;SDS011;21812;55.536;37.664;2022-12-24T06:23:19;16.45;;;10.57;;
35693;SDS011;21812;55.536;37.664;2022-12-24T06:25:45;15.40;;;10.82;;
35693;SDS011;21812;55.536;37.664;2022-12-24T06:28:11;17.73;;;11.30;;
35693;SDS011;21812;55.536;37.664;2022-12-24T06:30:37;21.38;;;12.18;;
35693;SDS011;21812;55.536;37.664;2022-12-24T06:33:03;16.08;;;10.43;;
35693;SDS011;21812;55.536;37.664;2022-12-24T06:35:32;23.83;;;11.48;;
35693;SDS011;21812;55.536;37.664;2022-12-24T06:37:58;18.85;;;12.18;;
35693;SDS011;21812;55.536;37.664;2022-12-24T06:40:24;17.77;;;10.20;;
35693;SDS011;21812;55.536;37.664;2022-12-24T06:42:51;21.45;;;11.77;;
35693;SDS011;21812;55.536;37.664;2022-12-24T06:45:16;19.23;;;10.38;;
35693;SDS011;21812;55.536;37.664;2022-12-24T06:47:42;18.88;;;10.98;;
35693;SDS011;21812;55.536;37.664;2022-12-24T06:50:08;17.65;;;11.05;;
35693;SDS011;21812;55.536;37.664;2022-12-24T06:52:33;20.55;;;11.32;;
35693;SDS011;21812;55.536;37.664;2022-12-24T06:54:59;19.70;;;10.98;;
35693;SDS011;21812;55.536;37.664;2022-12-24T06:57:25;20.67;;;11.20;;
35693;SDS011;21812;55.536;37.664;2022-12-24T06:59:51;21.10;;;11.50;;
35693;SDS011;21812;55.536;37.664;2022-12-24T07:02:16;17.85;;;11.27;;
35693;SDS011;21812;55.536;37.664;2022-12-24T07:04:44;19.80;;;11.45;;
35693;SDS011;21812;55.536;37.664;2022-12-24T07:07:10;19.73;;;12.40;;
35693;SDS011;21812;55.536;37.664;2022-12-24T07:09:35;19.70;;;11.38;;
35693;SDS011;21812;55.536;37.664;2022-12-24T07:12:03;22.70;;;11.85;;
35693;SDS011;21812;55.536;37.664;2022-12-24T07:14:29;23.08;;;12.77;;
35693;SDS011;21812;55.536;37.664;2022-12-24T07:16:55;18.33;;;11.18;;
35693;SDS011;21812;55.536;37.664;2022-12-24T07:19:21;19.90;;;11.23;;
35693;SDS011;21812;55.536;37.664;2022-12-24T07:21:47;17.88;;;10.90;;
35693;SDS011;21812;55.536;37.664;2022-12-24T07:24:14;14.73;;;10.10;;
35693;SDS011;21812;55.536;37.664;2022-12-24T07:26:40;20.83;;;12.10;;
35693;SDS011;21812;55.536;37.664;2022-12-24T07:29:06;20.98;;;12.20;;
35693;SDS011;21812;55.536;37.664;2022-12-24T07:31:33;24.38;;;10.70;;
35693;SDS011;21812;55.536;37.664;2022-12-24T07:33:59;17.55;;;10.57;;
35693;SDS011;21812;55.536;37.664;2022-12-24T07:36:24;21.90;;;12.15;;
35693;SDS011;21812;55.536;37.664;2022-12-24T07:38:52;19.35;;;10.95;;
35693;SDS011;21812;55.536;37.664;2022-12-24T07:41:18;19.08;;;12.18;;
35693;SDS011;21812;55.536;37.664;2022-12-24T07:43:44;17.17;;;10.05;;
35693;SDS011;21812;55.536;37.664;2022-12-24T07:46:10;19.08;;;11.52;;
35693;SDS011;21812;55.536;37.664;2022-12-24T07:48:35;14.88;;;10.43;;
35693;SDS011;21812;55.536;37.664;2022-12-24T07:51:01;16.55;;;9.98;;
35693;SDS011;21812;55.536;37.664;2022-12-24T07:53:27;15.10;;;8.50;;
35693;SDS011;21812;55.536;37.664;2022-12-24T07:55:53;21.55;;;12.65;;
35693;SDS011;21812;55.536;37.664;2022-12-24T07:58:20;13.35;;;6.95;;
35693;SDS011;21812;55.536;37.664;2022-12-24T08:00:46;18.58;;;11.23;;
35693;SDS011;21812;55.536;37.664;2022-12-24T08:03:18;15.80;;;8.43;;
35693;SDS011;21812;55.536;37.664;2022-12-24T08:05:45;14.55;;;10.13;;
35693;SDS011;21812;55.536;37.664;2022-12-24T08:08:11;12.38;;;8.43;;
35693;SDS011;21812;55.536;37.664;2022-12-24T08:10:37;13.52;;;8.77;;
35693;SDS011;21812;55.536;37.664;2022-12-24T08:13:04;12.98;;;8.27;;
35693;SDS011;21812;55.536;37.664;2022-12-24T08:15:29;13.27;;;8.77;;
35693;SDS011;21812;55.536;37.664;2022-12-24T08:17:55;15.40;;;9.80;;
35693;SDS011;21812;55.536;37.664;2022-12-24T08:20:20;19.30;;;11.40;;
35693;SDS011;21812;55.536;37.664;2022-12-24T08:22:46;16.58;;;11.07;;
35693;SDS011;21812;55.536;37.664;2022-12-24T08:25:12;9.35;;;6.63;;
35693;SDS011;21812;55.536;37.664;2022-12-24T08:27:37;18.60;;;11.50;;
35693;SDS011;21812;55.536;37.664;2022-12-24T08:30:03;14.32;;;9.48;;
35693;SDS011;21812;55.536;37.664;2022-12-24T08:32:30;11.60;;;6.75;;
35693;SDS011;21812;55.536;37.664;2022-12-24T08:34:56;16.33;;;10.80;;
35693;SDS011;21812;55.536;37.664;2022-12-24T08:37:21;16.38;;;10.45;;
35693;SDS011;21812;55.536;37.664;2022-12-24T08:39:47;15.68;;;9.88;;
35693;SDS011;21812;55.536;37.664;2022-12-24T08:42:12;18.60;;;11.95;;
35693;SDS011;21812;55.536;37.664;2022-12-24T08:44:38;8.70;;;5.47;;
35693;SDS011;21812;55.536;37.664;2022-12-24T08:47:04;14.80;;;10.48;;
35693;SDS011;21812;55.536;37.664;2022-12-24T08:49:29;16.33;;;9.45;;
35693;SDS011;21812;55.536;37.664;2022-12-24T08:51:55;15.63;;;10.60;;
35693;SDS011;21812;55.536;37.664;2022-12-24T08:54:22;14.45;;;8.77;;
35693;SDS011;21812;55.536;37.664;2022-12-24T08:56:48;14.35;;;8.40;;
35693;SDS011;21812;55.536;37.664;2022-12-24T08:59:13;12.57;;;7.80;;
35693;SDS011;21812;55.536;37.664;2022-12-24T09:01:39;16.63;;;10.68;;
35693;SDS011;21812;55.536;37.664;2022-12-24T09:04:05;10.50;;;7.85;;
35693;SDS011;21812;55.536;37.664;2022-12-24T09:06:31;11.48;;;7.47;;
35693;SDS011;21812;55.536;37.664;2022-12-24T09:08:57;9.68;;;5.90;;
35693;SDS011;21812;55.536;37.664;2022-12-24T09:11:23;9.40;;;6.03;;
35693;SDS011;21812;55.536;37.664;2022-12-24T09:13:49;8.82;;;6.50;;
35693;SDS011;21812;55.536;37.664;2022-12-24T09:16:15;13.05;;;7.72;;
35693;SDS011;21812;55.536;37.664;2022-12-24T09:18:41;7.93;;;5.60;;
35693;SDS011;21812;55.536;37.664;2022-12-24T09:21:08;13.35;;;8.77;;
35693;SDS011;21812;55.536;37.664;2022-12-24T09:23:36;10.50;;;7.50;;
35693;SDS011;21812;55.536;37.664;2022-12-24T09:26:08;12.23;;;6.85;;
35693;SDS011;21812;55.536;37.664;2022-12-24T09:28:36;8.45;;;5.38;;
35693;SDS011;21812;55.536;37.664;2022-12-24T09:31:02;10.70;;;7.40;;
35693;SDS011;21812;55.536;37.664;2022-12-24T09:33:30;10.77;;;7.72;;
35693;SDS011;21812;55.536;37.664;2022-12-24T09:35:58;9.05;;;6.30;;
35693;SDS011;21812;55.536;37.664;2022-12-24T09:38:25;11.50;;;8.50;;
35693;SDS011;21812;55.536;37.664;2022-12-24T09:40:51;13.10;;;8.27;;
35693;SDS011;21812;55.536;37.664;2022-12-24T09:43:22;14.48;;;8.30;;
35693;SDS011;21812;55.536;37.664;2022-12-24T09:48:27;13.52;;;8.80;;
35693;SDS011;21812;55.536;37.664;2022-12-24T09:56:36;12.68;;;8.60;;
35693;SDS011;21812;55.536;37.664;2022-12-24T09:58:59;12.93;;;8.05;;
35693;SDS011;21812;55.536;37.664;2022-12-24T10:01:31;9.52;;;6.22;;
35693;SDS011;21812;55.536;37.664;2022-12-24T10:04:02;13.93;;;10.48;;
35693;SDS011;21812;55.536;37.664;2022-12-24T10:12:24;16.23;;;10.45;;
35693;SDS011;21812;55.536;37.664;2022-12-24T10:15:00;11.38;;;7.25;;
35693;SDS011;21812;55.536;37.664;2022-12-24T10:23:13;13.70;;;7.50;;
35693;SDS011;21812;55.536;37.664;2022-12-24T10:28:29;16.00;;;9.30;;
35693;SDS011;21812;55.536;37.664;2022-12-24T10:31:08;14.07;;;9.90;;
35693;SDS011;21812;55.536;37.664;2022-12-24T10:33:42;8.00;;;5.82;;
35693;SDS011;21812;55.536;37.664;2022-12-24T10:36:10;15.15;;;10.10;;
35693;SDS011;21812;55.536;37.664;2022-12-24T10:38:42;15.90;;;9.45;;
35693;SDS011;21812;55.536;37.664;2022-12-24T10:41:08;14.93;;;9.20;;
35693;SDS011;21812;55.536;37.664;2022-12-24T10:43:34;14.57;;;9.35;;
35693;SDS011;21812;55.536;37.664;2022-12-24T10:46:03;14.90;;;9.75;;
35693;SDS011;21812;55.536;37.664;2022-12-24T10:51:05;12.60;;;8.35;;
35693;SDS011;21812;55.536;37.664;2022-12-24T10:53:41;13.88;;;8.77;;
35693;SDS011;21812;55.536;37.664;2022-12-24T10:56:12;14.13;;;8.85;;
35693;SDS011;21812;55.536;37.664;2022-12-24T10:58:44;12.85;;;8.25;;
35693;SDS011;21812;55.536;37.664;2022-12-24T11:01:15;12.27;;;8.20;;
35693;SDS011;21812;55.536;37.664;2022-12-24T11:03:41;14.15;;;10.35;;
35693;SDS011;21812;55.536;37.664;2022-12-24T11:06:10;14.43;;;8.40;;
35693;SDS011;21812;55.536;37.664;2022-12-24T11:08:40;11.63;;;8.65;;
35693;SDS011;21812;55.536;37.664;2022-12-24T11:16:06;13.63;;;9.23;;
35693;SDS011;21812;55.536;37.664;2022-12-24T11:18:46;15.52;;;9.48;;
35693;SDS011;21812;55.536;37.664;2022-12-24T11:21:48;9.02;;;6.55;;
35693;SDS011;21812;55.536;37.664;2022-12-24T11:26:39;13.70;;;9.18;;
35693;SDS011;21812;55.536;37.664;2022-12-24T11:29:25;18.10;;;10.27;;
35693;SDS011;21812;55.536;37.664;2022-12-24T11:32:09;12.52;;;8.80;;
35693;SDS011;21812;55.536;37.664;2022-12-24T11:34:41;13.85;;;9.55;;
35693;SDS011;21812;55.536;37.664;2022-12-24T11:37:08;11.95;;;8.15;;
35693;SDS011;21812;55.536;37.664;2022-12-24T11:39:40;14.85;;;9.48;;
35693;SDS011;21812;55.536;37.664;2022-12-24T11:42:22;12.88;;;8.77;;
35693;SDS011;21812;55.536;37.664;2022-12-24T11:44:49;14.48;;;8.77;;
35693;SDS011;21812;55.536;37.664;2022-12-24T11:47:15;11.38;;;8.18;;
35693;SDS011;21812;55.536;37.664;2022-12-24T11:49:41;14.52;;;9.20;;
35693;SDS011;21812;55.536;37.664;2022-12-24T11:54:56;11.10;;;8.05;;
35693;SDS011;21812;55.536;37.664;2022-12-24T11:57:44;11.95;;;8.15;;
35693;SDS011;21812;55.536;37.664;2022-12-24T12:00:16;14.27;;;7.53;;
35693;SDS011;21812;55.536;37.664;2022-12-24T12:02:41;11.77;;;7.88;;
35693;SDS011;21812;55.536;37.664;2022-12-24T12:05:12;16.58;;;11.23;;
35693;SDS011;21812;55.536;37.664;2022-12-24T12:07:43;11.88;;;7.20;;
35693;SDS011;21812;55.536;37.664;2022-12-24T12:10:22;8.95;;;6.40;;
35693;SDS011;21812;55.536;37.664;2022-12-24T12:15:33;8.68;;;6.00;;
35693;SDS011;21812;55.536;37.664;2022-12-24T12:25:58;10.75;;;6.78;;
35693;SDS011;21812;55.536;37.664;2022-12-24T12:33:38;7.63;;;4.88;;
35693;SDS011;21812;55.536;37.664;2022-12-24T12:36:09;5.80;;;4.53;;
35693;SDS011;21812;55.536;37.664;2022-12-24T12:38:36;8.63;;;5.00;;
35693;SDS011;21812;55.536;37.664;2022-12-24T12:44:08;8.27;;;5.55;;
35693;SDS011;21812;55.536;37.664;2022-12-24T12:52:40;8.05;;;5.28;;
35693;SDS011;21812;55.536;37.664;2022-12-24T12:58:16;9.10;;;6.05;;
35693;SDS011;21812;55.536;37.664;2022-12-24T13:00:48;7.25;;;4.55;;
35693;SDS011;21812;55.536;37.664;2022-12-24T13:14:11;8.82;;;5.43;;
35693;SDS011;21812;55.536;37.664;2022-12-24T13:21:40;8.65;;;5.07;;
35693;SDS011;21812;55.536;37.664;2022-12-24T13:24:15;6.65;;;5.20;;
35693;SDS011;21812;55.536;37.664;2022-12-24T13:29:41;6.70;;;5.03;;
35693;SDS011;21812;55.536;37.664;2022-12-24T13:34:52;6.55;;;5.03;;
35693;SDS011;21812;55.536;37.664;2022-12-24T13:50:35;8.05;;;5.22;;
35693;SDS011;21812;55.536;37.664;2022-12-24T13:53:02;6.57;;;5.13;;
35693;SDS011;21812;55.536;37.664;2022-12-24T13:55:29;7.03;;;5.20;;
35693;SDS011;21812;55.536;37.664;2022-12-24T14:00:36;13.35;;;8.73;;
35693;SDS011;21812;55.536;37.664;2022-12-24T14:03:26;13.40;;;9.65;;
35693;SDS011;21812;55.536;37.664;2022-12-24T14:06:02;15.07;;;11.20;;
35693;SDS011;21812;55.536;37.664;2022-12-24T14:08:44;14.57;;;11.35;;
35693;SDS011;21812;55.536;37.664;2022-12-24T14:11:17;13.45;;;11.55;;
35693;SDS011;21812;55.536;37.664;2022-12-24T14:16:22;19.75;;;11.60;;
35693;SDS011;21812;55.536;37.664;2022-12-24T14:21:36;13.77;;;10.27;;
35693;SDS011;21812;55.536;37.664;2022-12-24T14:24:12;14.85;;;9.55;;
35693;SDS011;21812;55.536;37.664;2022-12-24T14:26:46;7.40;;;6.07;;
35693;SDS011;21812;55.536;37.664;2022-12-24T14:29:39;8.20;;;5.82;;
35693;SDS011;21812;55.536;37.664;2022-12-24T14:32:12;10.65;;;5.80;;
35693;SDS011;21812;55.536;37.664;2022-12-24T14:34:39;6.25;;;5.65;;
35693;SDS011;21812;55.536;37.664;2022-12-24T14:37:05;6.82;;;4.32;;
35693;SDS011;21812;55.536;37.664;2022-12-24T14:39:35;8.45;;;4.90;;
35693;SDS011;21812;55.536;37.664;2022-12-24T14:42:08;8.63;;;4.82;;
35693;SDS011;21812;55.536;37.664;2022-12-24T14:56:15;6.32;;;5.03;;
35693;SDS011;21812;55.536;37.664;2022-12-24T14:58:42;6.47;;;4.95;;
35693;SDS011;21812;55.536;37.664;2022-12-24T15:01:20;7.90;;;5.15;;
35693;SDS011;21812;55.536;37.664;2022-12-24T15:06:39;5.35;;;4.40;;
35693;SDS011;21812;55.536;37.664;2022-12-24T15:09:13;8.18;;;5.18;;
35693;SDS011;21812;55.536;37.664;2022-12-24T15:11:50;5.68;;;4.60;;
35693;SDS011;21812;55.536;37.664;2022-12-24T15:14:19;7.63;;;4.90;;
35693;SDS011;21812;55.536;37.664;2022-12-24T15:16:51;6.93;;;5.28;;
35693;SDS011;21812;55.536;37.664;2022-12-24T15:19:21;5.88;;;4.70;;
35693;SDS011;21812;55.536;37.664;2022-12-24T15:21:51;10.20;;;5.65;;
35693;SDS011;21812;55.536;37.664;2022-12-24T15:24:25;6.63;;;4.60;;
35693;SDS011;21812;55.536;37.664;2022-12-24T15:26:58;10.32;;;6.43;;
35693;SDS011;21812;55.536;37.664;2022-12-24T15:29:31;10.25;;;5.32;;
35693;SDS011;21812;55.536;37.664;2022-12-24T15:32:01;5.68;;;4.65;;
35693;SDS011;21812;55.536;37.664;2022-12-24T15:34:40;9.90;;;4.95;;
35693;SDS011;21812;55.536;37.664;2022-12-24T15:37:18;6.40;;;4.97;;
35693;SDS011;21812;55.536;37.664;2022-12-24T15:39:55;6.55;;;4.68;;
35693;SDS011;21812;55.536;37.664;2022-12-24T15:42:21;6.85;;;5.03;;
35693;SDS011;21812;55.536;37.664;2022-12-24T15:44:56;7.15;;;5.13;;
35693;SDS011;21812;55.536;37.664;2022-12-24T15:47:32;7.55;;;5.00;;
35693;SDS011;21812;55.536;37.664;2022-12-24T15:50:27;7.85;;;4.95;;
35693;SDS011;21812;55.536;37.664;2022-12-24T15:53:03;8.40;;;5.35;;
35693;SDS011;21812;55.536;37.664;2022-12-24T15:55:44;6.75;;;5.20;;
35693;SDS011;21812;55.536;37.664;2022-12-24T15:58:24;28.85;;;14.20;;
35693;SDS011;21812;55.536;37.664;2022-12-24T16:00:59;22.27;;;12.20;;
35693;SDS011;21812;55.536;37.664;2022-12-24T16:03:34;18.15;;;9.73;;
35693;SDS011;21812;55.536;37.664;2022-12-24T16:06:06;26.92;;;14.10;;
35693;SDS011;21812;55.536;37.664;2022-12-24T16:08:33;45.15;;;20.63;;
35693;SDS011;21812;55.536;37.664;2022-12-24T16:11:13;31.00;;;16.45;;
35693;SDS011;21812;55.536;37.664;2022-12-24T16:16:33;11.75;;;6.03;;
35693;SDS011;21812;55.536;37.664;2022-12-24T16:19:02;8.32;;;6.40;;
35693;SDS011;21812;55.536;37.664;2022-12-24T16:21:34;10.80;;;7.13;;
35693;SDS011;21812;55.536;37.664;2022-12-24T16:24:06;12.43;;;7.53;;
35693;SDS011;21812;55.536;37.664;2022-12-24T16:26:39;14.70;;;8.20;;
35693;SDS011;21812;55.536;37.664;2022-12-24T16:29:05;8.43;;;6.10;;
35693;SDS011;21812;55.536;37.664;2022-12-24T16:31:32;11.20;;;7.63;;
35693;SDS011;21812;55.536;37.664;2022-12-24T16:34:04;15.20;;;8.73;;
35693;SDS011;21812;55.536;37.664;2022-12-24T16:36:30;40.65;;;21.98;;
35693;SDS011;21812;55.536;37.664;2022-12-24T16:38:57;54.38;;;26.98;;
35693;SDS011;21812;55.536;37.664;2022-12-24T16:41:42;32.22;;;16.92;;
35693;SDS011;21812;55.536;37.664;2022-12-24T16:44:26;54.33;;;30.27;;
35693;SDS011;21812;55.536;37.664;2022-12-24T16:46:52;91.32;;;43.15;;
35693;SDS011;21812;55.536;37.664;2022-12-24T16:49:19;85.15;;;44.75;;